Brownsville, Texas
Current Conditions -  °F | °C
As of 9:53 AM on Friday 24 Oct 2014 (Local Time) from KBRO Reporting Station
Clear Clear  
Wind Chill: 78°   Ceiling: Unl
Heat Index: 80°   Visibility: 10mi
Dew Point: 68°   Wind: 8mph
Humidity: 71%   Direction: 360°N
Pressure: 30.14"   Gusts: NA
Location:  25.9°N, 97.49°W
Report Text: KBRO 241453Z 36007KT 10SM CLR 26/20 A3014 RMK AO2 SLP203 T02560200 51021
Loading
Personal Weather Stations






























Interactive Weather Map New forecast layout! Learn more

10-Day Weather Forecast

Advertisements
Track Severe Weather on mobile